Time;durP1;ratioP1;P1;durP2;ratioP2;P2;SDS_P1;SDS_P2;PMS_P1;PMS_P2;Temp;Humidity;BMP_temperature;BMP_pressure;BME280_temperature;BME280_humidity;BME280_pressure;Samples;Min_cycle;Max_cycle;Signal;HPM_P1;HPM_P2
2022/04/03 00:02:03;;;;;;;10.25;4.85;;;;;;;;;;5068465;28;20508;-65
2022/04/03 00:04:29;;;;;;;7.55;4.13;;;;;;;;;;5068824;28;20097;-65
2022/04/03 00:06:55;;;;;;;7.05;4.47;;;;;;;;;;5068954;28;20098;-65
2022/04/03 00:09:22;;;;;;;8.32;4.72;;;;;;;;;;5070146;28;20550;-65
2022/04/03 00:11:48;;;;;;;6.65;4.43;;;;;;;;;;5050970;28;20052;-65
2022/04/03 00:14:14;;;;;;;10.15;4.70;;;;;;;;;;5069990;28;20509;-65
2022/04/03 00:16:40;;;;;;;9.75;4.15;;;;;;;;;;5070380;28;20064;-65
2022/04/03 00:19:07;;;;;;;7.78;4.03;;;;;;;;;;5068052;28;20400;-65
2022/04/03 00:21:35;;;;;;;8.23;4.10;;;;;;;;;;5069120;28;20129;-65
2022/04/03 00:24:01;;;;;;;11.55;4.45;;;;;;;;;;5070020;28;20041;-65
2022/04/03 00:26:27;;;;;;;9.25;4.28;;;;;;;;;;5051616;28;20067;-65
2022/04/03 00:28:53;;;;;;;10.60;3.95;;;;;;;;;;5070551;28;20438;-65
2022/04/03 00:31:20;;;;;;;10.13;4.57;;;;;;;;;;5069555;28;20037;-65
2022/04/03 00:33:46;;;;;;;9.77;4.28;;;;;;;;;;5051015;28;20144;-65
2022/04/03 00:36:12;;;;;;;8.73;5.03;;;;;;;;;;5069175;28;20044;-65
2022/04/03 00:38:38;;;;;;;10.43;4.65;;;;;;;;;;5070392;28;20029;-65
2022/04/03 00:41:04;;;;;;;8.20;4.65;;;;;;;;;;5068969;28;20385;-65
2022/04/03 00:43:30;;;;;;;10.10;4.75;;;;;;;;;;5067947;28;20495;-65
2022/04/03 00:45:56;;;;;;;10.38;5.00;;;;;;;;;;5050468;28;20040;-65
2022/04/03 00:48:23;;;;;;;9.43;4.70;;;;;;;;;;5067990;28;20493;-65
2022/04/03 00:50:51;;;;;;;8.65;4.50;;;;;;;;;;5051105;28;20369;-65
2022/04/03 00:53:17;;;;;;;9.07;4.30;;;;;;;;;;5070291;28;20041;-65
2022/04/03 00:55:43;;;;;;;9.35;4.32;;;;;;;;;;5069283;28;20078;-65
2022/04/03 00:58:13;;;;;;;11.07;4.68;;;;;;;;;;5051522;28;20489;-65
2022/04/03 01:00:39;;;;;;;7.57;4.53;;;;;;;;;;5068220;28;20051;-65
2022/04/03 01:03:06;;;;;;;5.72;3.50;;;;;;;;;;5068962;28;20396;-65
2022/04/03 01:05:33;;;;;;;8.90;4.00;;;;;;;;;;5050010;28;20040;-65
2022/04/03 01:07:59;;;;;;;11.55;4.28;;;;;;;;;;5066395;28;20385;-65
2022/04/03 01:10:26;;;;;;;6.72;3.47;;;;;;;;;;5068651;28;20044;-65
2022/04/03 01:12:52;;;;;;;7.07;3.65;;;;;;;;;;5067902;28;20044;-66
2022/04/03 01:15:18;;;;;;;10.77;3.70;;;;;;;;;;5068199;28;20040;-65
2022/04/03 01:17:45;;;;;;;7.32;3.75;;;;;;;;;;5069051;28;20037;-65
2022/04/03 01:20:11;;;;;;;7.28;3.80;;;;;;;;;;5067838;28;20051;-66
2022/04/03 01:22:38;;;;;;;5.70;3.40;;;;;;;;;;5067727;28;20075;-65
2022/04/03 01:25:04;;;;;;;5.50;3.58;;;;;;;;;;5067922;28;20040;-68
2022/04/03 01:27:31;;;;;;;8.20;3.38;;;;;;;;;;5067765;28;20072;-66
2022/04/03 01:29:57;;;;;;;5.53;3.58;;;;;;;;;;5067973;28;20138;-65
2022/04/03 01:32:24;;;;;;;7.45;3.20;;;;;;;;;;5067589;28;20093;-66
2022/04/03 01:34:50;;;;;;;7.00;3.55;;;;;;;;;;5068256;28;20041;-66
2022/04/03 01:37:16;;;;;;;6.05;3.30;;;;;;;;;;5049969;28;20052;-66
2022/04/03 01:39:42;;;;;;;6.32;3.63;;;;;;;;;;5065911;28;20531;-66
2022/04/03 01:42:09;;;;;;;4.95;3.45;;;;;;;;;;5067650;28;20443;-66
2022/04/03 01:44:35;;;;;;;7.00;3.30;;;;;;;;;;5048257;28;20044;-66
2022/04/03 01:47:01;;;;;;;7.05;3.53;;;;;;;;;;5067247;28;20507;-66
2022/04/03 01:49:27;;;;;;;7.32;3.33;;;;;;;;;;5049912;28;20481;-65
2022/04/03 01:51:53;;;;;;;6.70;3.80;;;;;;;;;;5068042;28;20104;-66
2022/04/03 01:54:19;;;;;;;11.32;3.38;;;;;;;;;;5066553;28;21502;-65
2022/04/03 01:56:45;;;;;;;5.70;3.20;;;;;;;;;;5067510;28;20089;-66
2022/04/03 01:59:11;;;;;;;5.82;3.17;;;;;;;;;;5064926;28;20067;-66
2022/04/03 02:01:37;;;;;;;8.00;3.35;;;;;;;;;;5066696;28;20036;-66
2022/04/03 02:04:04;;;;;;;8.10;3.40;;;;;;;;;;5049083;28;20071;-66
2022/04/03 02:06:31;;;;;;;5.53;3.22;;;;;;;;;;5049398;28;20040;-66
2022/04/03 02:08:57;;;;;;;5.05;3.22;;;;;;;;;;5065529;28;20036;-65
2022/04/03 02:11:23;;;;;;;5.53;3.15;;;;;;;;;;5048651;28;20047;-66
2022/04/03 02:13:50;;;;;;;7.22;3.40;;;;;;;;;;5066910;28;20061;-66
2022/04/03 02:16:16;;;;;;;5.10;2.80;;;;;;;;;;5066163;28;20044;-66
2022/04/03 02:18:43;;;;;;;6.45;3.25;;;;;;;;;;5067225;28;20075;-65
2022/04/03 02:21:09;;;;;;;5.90;3.25;;;;;;;;;;5047735;28;20149;-65
2022/04/03 02:23:35;;;;;;;5.47;2.90;;;;;;;;;;5067019;28;20044;-65
2022/04/03 02:26:01;;;;;;;6.75;3.58;;;;;;;;;;5049276;28;20123;-65
2022/04/03 02:28:27;;;;;;;5.38;3.17;;;;;;;;;;5064025;28;20075;-65
2022/04/03 02:30:53;;;;;;;6.22;3.30;;;;;;;;;;5065072;28;20071;-66
2022/04/03 02:33:19;;;;;;;5.80;3.63;;;;;;;;;;5064368;28;20174;-66
2022/04/03 02:35:45;;;;;;;8.10;3.50;;;;;;;;;;5066682;28;20358;-66
2022/04/03 02:38:11;;;;;;;6.70;3.20;;;;;;;;;;5067249;28;20099;-65
2022/04/03 02:40:38;;;;;;;4.93;2.90;;;;;;;;;;5048773;28;20052;-65
2022/04/03 02:43:04;;;;;;;6.45;3.30;;;;;;;;;;5064715;28;20045;-66
2022/04/03 02:45:30;;;;;;;4.25;2.78;;;;;;;;;;5066640;28;20040;-66
2022/04/03 02:47:56;;;;;;;7.57;3.00;;;;;;;;;;5065030;28;20120;-66
2022/04/03 02:50:24;;;;;;;4.63;3.03;;;;;;;;;;5067542;28;20098;-66
2022/04/03 02:52:50;;;;;;;4.85;2.85;;;;;;;;;;5047976;28;20053;-66
2022/04/03 02:55:17;;;;;;;6.72;2.80;;;;;;;;;;5067191;28;20141;-66
2022/04/03 02:57:43;;;;;;;6.28;2.75;;;;;;;;;;5049087;28;20049;-66
2022/04/03 03:00:14;;;;;;;4.13;2.83;;;;;;;;;;5065539;28;20041;-66
2022/04/03 03:02:41;;;;;;;7.80;2.65;;;;;;;;;;5048863;28;20120;-66
2022/04/03 03:05:07;;;;;;;5.00;2.67;;;;;;;;;;5066781;28;20047;-66
2022/04/03 03:07:37;;;;;;;4.22;2.47;;;;;;;;;;5066454;28;20376;-65
2022/04/03 03:10:04;;;;;;;7.20;2.70;;;;;;;;;;5067828;28;20111;-66
2022/04/03 03:12:30;;;;;;;4.43;2.72;;;;;;;;;;5065686;28;20055;-66
2022/04/03 03:14:56;;;;;;;5.32;2.60;;;;;;;;;;5049157;28;20135;-66
2022/04/03 03:17:22;;;;;;;5.50;2.53;;;;;;;;;;5067911;28;20098;-66
2022/04/03 03:19:49;;;;;;;5.80;2.65;;;;;;;;;;5066994;28;20036;-66
2022/04/03 03:22:15;;;;;;;5.18;2.65;;;;;;;;;;5067070;28;20048;-66
2022/04/03 03:24:41;;;;;;;5.85;2.72;;;;;;;;;;5068025;28;20127;-66
2022/04/03 03:27:07;;;;;;;4.60;2.35;;;;;;;;;;5066176;28;20032;-65
2022/04/03 03:29:33;;;;;;;5.93;2.65;;;;;;;;;;5068133;28;20051;-66
2022/04/03 03:31:59;;;;;;;3.60;2.38;;;;;;;;;;5067111;28;20136;-66
2022/04/03 03:34:26;;;;;;;4.70;2.65;;;;;;;;;;5067227;28;20040;-67
2022/04/03 03:36:52;;;;;;;5.82;2.55;;;;;;;;;;5066768;28;20040;-66
2022/04/03 03:39:18;;;;;;;4.63;2.80;;;;;;;;;;5066275;28;20075;-66
2022/04/03 03:41:44;;;;;;;3.70;2.40;;;;;;;;;;5065019;28;20045;-65
2022/04/03 03:44:10;;;;;;;6.05;2.53;;;;;;;;;;5048575;28;20120;-66
2022/04/03 03:46:40;;;;;;;4.95;2.38;;;;;;;;;;5046344;28;20036;-66
2022/04/03 03:49:06;;;;;;;4.82;2.28;;;;;;;;;;5067048;28;20119;-66
2022/04/03 03:51:36;;;;;;;3.72;2.60;;;;;;;;;;5065096;28;20119;-66
2022/04/03 03:54:02;;;;;;;4.45;2.33;;;;;;;;;;5068210;28;20093;-66
2022/04/03 03:56:28;;;;;;;5.95;2.85;;;;;;;;;;5065278;28;20037;-66
2022/04/03 03:58:54;;;;;;;7.18;3.03;;;;;;;;;;5065989;28;20052;-66
2022/04/03 04:01:21;;;;;;;5.78;2.90;;;;;;;;;;5068813;28;20049;-66
2022/04/03 04:03:47;;;;;;;5.05;2.17;;;;;;;;;;5052489;28;20041;-66
2022/04/03 04:06:13;;;;;;;5.65;3.03;;;;;;;;;;5069737;28;20111;-66
2022/04/03 04:08:39;;;;;;;5.22;2.42;;;;;;;;;;5068767;28;20043;-66
2022/04/03 04:11:05;;;;;;;4.95;2.47;;;;;;;;;;5070039;28;20061;-65
2022/04/03 04:13:32;;;;;;;6.13;2.70;;;;;;;;;;5049771;28;20045;-66
2022/04/03 04:15:58;;;;;;;7.05;2.40;;;;;;;;;;5070675;28;20047;-66
2022/04/03 04:18:24;;;;;;;5.38;2.55;;;;;;;;;;5070096;28;20086;-66
2022/04/03 04:20:53;;;;;;;3.90;2.55;;;;;;;;;;5069054;28;20052;-66
2022/04/03 04:23:19;;;;;;;3.33;2.13;;;;;;;;;;5069678;28;20496;-66
2022/04/03 04:25:45;;;;;;;4.30;2.75;;;;;;;;;;5051294;28;20385;-66
2022/04/03 04:28:11;;;;;;;4.60;2.67;;;;;;;;;;5069485;28;20032;-66
2022/04/03 04:30:38;;;;;;;4.03;2.40;;;;;;;;;;5050931;28;20117;-66
2022/04/03 04:33:04;;;;;;;3.40;2.58;;;;;;;;;;5069735;28;20067;-66
2022/04/03 04:35:30;;;;;;;5.20;2.70;;;;;;;;;;5068558;28;20033;-65
2022/04/03 04:37:56;;;;;;;4.65;2.78;;;;;;;;;;5034659;28;20037;-65
2022/04/03 04:40:22;;;;;;;4.35;2.63;;;;;;;;;;5068990;28;20106;-65
2022/04/03 04:42:49;;;;;;;3.78;2.35;;;;;;;;;;5068227;28;20083;-65
2022/04/03 04:45:15;;;;;;;4.65;2.20;;;;;;;;;;5068584;28;20045;-66
2022/04/03 04:47:42;;;;;;;5.72;2.28;;;;;;;;;;5049698;28;20426;-66
2022/04/03 04:50:09;;;;;;;5.88;2.47;;;;;;;;;;5067101;28;20048;-66
2022/04/03 04:52:39;;;;;;;5.05;2.60;;;;;;;;;;5067723;28;20047;-66
2022/04/03 04:55:06;;;;;;;3.95;2.17;;;;;;;;;;5068871;28;20159;-66
2022/04/03 04:57:32;;;;;;;3.25;2.25;;;;;;;;;;5068099;28;20502;-66
2022/04/03 04:59:59;;;;;;;3.95;2.22;;;;;;;;;;5068423;28;20046;-66
2022/04/03 05:02:25;;;;;;;3.50;2.17;;;;;;;;;;5069033;28;20048;-66
2022/04/03 05:04:51;;;;;;;3.97;1.83;;;;;;;;;;5067946;28;20572;-66
2022/04/03 05:07:17;;;;;;;3.53;2.00;;;;;;;;;;5068176;28;20493;-66
2022/04/03 05:09:44;;;;;;;4.32;1.90;;;;;;;;;;5049774;28;20083;-66
2022/04/03 05:12:11;;;;;;;3.88;1.70;;;;;;;;;;5048133;28;20040;-66
2022/04/03 05:14:38;;;;;;;5.00;2.00;;;;;;;;;;5069203;28;20045;-66
2022/04/03 05:17:05;;;;;;;3.70;1.73;;;;;;;;;;5069198;28;20036;-66
2022/04/03 05:19:32;;;;;;;4.45;2.10;;;;;;;;;;5050777;28;20040;-66
2022/04/03 05:21:58;;;;;;;4.15;2.10;;;;;;;;;;5068661;28;20064;-66
2022/04/03 05:24:24;;;;;;;2.88;1.55;;;;;;;;;;5069111;28;20677;-65
2022/04/03 05:26:50;;;;;;;5.13;1.90;;;;;;;;;;5067765;28;20044;-65
2022/04/03 05:29:17;;;;;;;3.08;1.80;;;;;;;;;;5069126;28;20032;-66
2022/04/03 05:31:44;;;;;;;4.25;1.95;;;;;;;;;;5068437;28;20365;-66
2022/04/03 05:34:10;;;;;;;6.35;2.00;;;;;;;;;;5067304;28;20049;-66
2022/04/03 05:36:36;;;;;;;3.55;2.05;;;;;;;;;;5069753;28;20036;-66
2022/04/03 05:39:04;;;;;;;2.65;1.92;;;;;;;;;;5068805;28;20044;-66
2022/04/03 05:41:40;;;;;;;2.70;1.92;;;;;;;;;;5050048;28;20040;-66
2022/04/03 05:44:06;;;;;;;4.13;2.10;;;;;;;;;;5068308;28;20063;-66
2022/04/03 05:46:32;;;;;;;6.28;1.90;;;;;;;;;;5068238;28;20079;-66
2022/04/03 05:48:59;;;;;;;3.53;1.83;;;;;;;;;;5069120;28;20036;-65
2022/04/03 05:51:25;;;;;;;3.42;1.90;;;;;;;;;;5051083;28;20689;-66
2022/04/03 05:53:52;;;;;;;4.45;2.20;;;;;;;;;;5070162;28;20501;-66
2022/04/03 05:56:18;;;;;;;3.50;2.08;;;;;;;;;;5067502;28;20045;-66
2022/04/03 05:58:44;;;;;;;5.18;1.73;;;;;;;;;;5067267;28;20417;-66
2022/04/03 06:01:11;;;;;;;6.55;2.03;;;;;;;;;;5066658;28;20056;-66
2022/04/03 06:03:37;;;;;;;4.22;2.13;;;;;;;;;;5067399;28;20037;-66
2022/04/03 06:06:04;;;;;;;5.50;1.85;;;;;;;;;;5067991;28;20123;-66
2022/04/03 06:08:31;;;;;;;7.38;2.45;;;;;;;;;;5067225;28;20056;-66
2022/04/03 06:10:57;;;;;;;3.78;2.00;;;;;;;;;;5066692;28;20048;-66
2022/04/03 06:13:25;;;;;;;3.70;1.85;;;;;;;;;;5067814;28;20056;-66
2022/04/03 06:15:51;;;;;;;4.97;2.20;;;;;;;;;;5066386;28;20071;-66
2022/04/03 06:18:18;;;;;;;6.90;1.92;;;;;;;;;;5068588;28;20169;-66
2022/04/03 06:20:45;;;;;;;5.93;2.17;;;;;;;;;;5069095;28;20041;-66
2022/04/03 06:23:15;;;;;;;3.67;2.00;;;;;;;;;;5066860;28;20056;-66
2022/04/03 06:25:44;;;;;;;4.28;1.90;;;;;;;;;;5067981;28;20039;-66
2022/04/03 06:28:11;;;;;;;3.25;2.00;;;;;;;;;;5067058;28;20044;-66
2022/04/03 06:30:37;;;;;;;4.90;2.08;;;;;;;;;;5067414;28;20405;-66
2022/04/03 06:33:03;;;;;;;4.43;2.00;;;;;;;;;;5050275;28;20059;-66
2022/04/03 06:35:29;;;;;;;4.70;2.45;;;;;;;;;;5050291;28;20036;-65
2022/04/03 06:37:56;;;;;;;4.35;2.30;;;;;;;;;;5050284;28;20055;-65
2022/04/03 06:40:23;;;;;;;4.70;2.42;;;;;;;;;;5068011;28;20185;-66
2022/04/03 06:42:49;;;;;;;4.25;2.30;;;;;;;;;;5067408;28;20047;-66
2022/04/03 06:45:15;;;;;;;5.50;2.58;;;;;;;;;;5067207;28;21279;-65
2022/04/03 06:47:42;;;;;;;5.57;2.85;;;;;;;;;;5067919;28;20075;-66
2022/04/03 06:50:08;;;;;;;5.70;3.00;;;;;;;;;;5049868;28;20047;-65
2022/04/03 06:52:35;;;;;;;4.15;2.58;;;;;;;;;;5046803;28;20048;-65
2022/04/03 06:55:01;;;;;;;4.63;2.28;;;;;;;;;;5065666;28;20048;-65
2022/04/03 06:57:27;;;;;;;6.93;2.55;;;;;;;;;;5065095;28;20048;-65
2022/04/03 06:59:53;;;;;;;6.75;2.38;;;;;;;;;;5066082;28;20036;-66
2022/04/03 07:02:19;;;;;;;4.05;1.77;;;;;;;;;;5046655;28;20666;-65
2022/04/03 07:04:45;;;;;;;5.45;1.77;;;;;;;;;;5049899;28;20044;-65
2022/04/03 07:07:11;;;;;;;5.65;2.28;;;;;;;;;;5049201;28;20101;-65
2022/04/03 07:09:41;;;;;;;3.40;1.60;;;;;;;;;;5048655;28;20055;-65
2022/04/03 07:12:08;;;;;;;5.10;1.70;;;;;;;;;;5068381;28;20115;-65
2022/04/03 07:14:34;;;;;;;5.13;2.10;;;;;;;;;;5067314;28;20094;-65
2022/04/03 07:17:00;;;;;;;6.88;2.30;;;;;;;;;;5068508;28;20052;-65
2022/04/03 07:19:26;;;;;;;6.72;2.38;;;;;;;;;;5068512;28;20043;-65
2022/04/03 07:21:52;;;;;;;5.78;2.08;;;;;;;;;;5050923;28;20103;-68
2022/04/03 07:24:18;;;;;;;7.00;1.77;;;;;;;;;;5049098;28;20059;-67
2022/04/03 07:26:44;;;;;;;4.88;1.83;;;;;;;;;;5048840;28;20064;-68
2022/04/03 07:29:10;;;;;;;6.10;2.05;;;;;;;;;;5032037;28;20071;-68
2022/04/03 07:31:36;;;;;;;10.10;2.30;;;;;;;;;;5047430;28;20091;-68
2022/04/03 07:34:03;;;;;;;4.93;2.08;;;;;;;;;;5049649;28;20056;-68
2022/04/03 07:36:30;;;;;;;5.97;2.03;;;;;;;;;;5051255;28;20041;-68
2022/04/03 07:38:56;;;;;;;4.80;2.13;;;;;;;;;;5070482;28;20048;-68
2022/04/03 07:41:22;;;;;;;5.07;2.03;;;;;;;;;;5050327;28;20059;-68
2022/04/03 07:43:49;;;;;;;3.33;1.75;;;;;;;;;;5070176;28;20041;-68
2022/04/03 07:46:17;;;;;;;6.28;2.05;;;;;;;;;;5052023;28;20086;-69
2022/04/03 07:48:43;;;;;;;4.22;1.77;;;;;;;;;;5051488;28;20052;-69
2022/04/03 07:51:10;;;;;;;7.03;2.05;;;;;;;;;;5050165;28;20436;-67
2022/04/03 07:53:36;;;;;;;4.30;1.85;;;;;;;;;;5066888;28;20040;-69
2022/04/03 07:56:04;;;;;;;5.20;2.08;;;;;;;;;;5050401;28;20119;-69
2022/04/03 07:58:30;;;;;;;5.15;1.60;;;;;;;;;;5070161;28;20051;-68
2022/04/03 08:00:57;;;;;;;7.03;1.90;;;;;;;;;;5052444;28;20376;-68
2022/04/03 08:03:23;;;;;;;5.28;2.08;;;;;;;;;;5052038;28;20063;-69
2022/04/03 08:05:49;;;;;;;7.70;1.70;;;;;;;;;;5053070;28;20554;-69
2022/04/03 08:08:15;;;;;;;3.33;1.45;;;;;;;;;;5070582;28;20059;-68
2022/04/03 08:10:41;;;;;;;4.03;1.30;;;;;;;;;;5052873;28;20178;-69
2022/04/03 08:13:08;;;;;;;1.88;1.05;;;;;;;;;;5053189;28;20036;-68
2022/04/03 08:15:34;;;;;;;2.42;0.90;;;;;;;;;;5071573;28;20182;-69
2022/04/03 08:18:00;;;;;;;4.35;1.08;;;;;;;;;;5052715;28;20040;-69
2022/04/03 08:20:26;;;;;;;6.38;1.23;;;;;;;;;;5034051;28;20481;-68
2022/04/03 08:22:52;;;;;;;2.55;1.10;;;;;;;;;;5052156;28;20059;-68
2022/04/03 08:25:19;;;;;;;4.13;0.90;;;;;;;;;;5034684;28;20162;-68
2022/04/03 08:27:45;;;;;;;1.60;0.80;;;;;;;;;;5052014;28;20040;-68
2022/04/03 08:30:17;;;;;;;1.95;0.95;;;;;;;;;;5050656;28;20043;-68
2022/04/03 08:32:43;;;;;;;3.22;0.80;;;;;;;;;;5051934;28;20068;-69
2022/04/03 08:35:11;;;;;;;5.15;0.95;;;;;;;;;;5069585;28;20049;-68
2022/04/03 08:37:37;;;;;;;2.53;0.80;;;;;;;;;;5069818;28;20067;-68
2022/04/03 08:40:06;;;;;;;4.35;0.98;;;;;;;;;;5052693;28;20443;-68
2022/04/03 08:42:33;;;;;;;3.40;0.98;;;;;;;;;;5050022;28;20036;-68
2022/04/03 08:44:59;;;;;;;2.88;0.75;;;;;;;;;;5049280;28;20033;-68
2022/04/03 08:47:26;;;;;;;4.50;1.00;;;;;;;;;;5050523;28;20511;-68
2022/04/03 08:49:57;;;;;;;1.98;0.70;;;;;;;;;;5051231;28;20035;-68
2022/04/03 08:52:23;;;;;;;5.82;1.17;;;;;;;;;;5050198;28;20225;-68
2022/04/03 08:54:49;;;;;;;2.13;0.90;;;;;;;;;;5047679;28;20040;-68
2022/04/03 08:57:15;;;;;;;3.20;0.90;;;;;;;;;;5050585;28;20119;-68
2022/04/03 08:59:43;;;;;;;1.52;0.77;;;;;;;;;;5050604;28;20366;-68
2022/04/03 09:02:12;;;;;;;1.63;0.80;;;;;;;;;;5051250;28;20063;-68
2022/04/03 09:04:38;;;;;;;1.77;0.75;;;;;;;;;;5049171;28;20052;-68
2022/04/03 09:07:05;;;;;;;3.50;1.00;;;;;;;;;;5033353;28;21385;-68
2022/04/03 09:09:32;;;;;;;3.50;0.80;;;;;;;;;;5050581;28;20040;-68
2022/04/03 09:12:15;;;;;;;1.65;0.73;;;;;;;;;;5049602;28;20693;-68
2022/04/03 09:14:45;;;;;;;2.13;0.80;;;;;;;;;;5049940;28;20061;-68
2022/04/03 09:17:12;;;;;;;3.75;0.77;;;;;;;;;;5050346;28;20048;-68
2022/04/03 09:19:38;;;;;;;2.15;0.70;;;;;;;;;;5050199;28;20435;-68
2022/04/03 09:22:04;;;;;;;4.10;0.88;;;;;;;;;;5051612;28;20053;-68
2022/04/03 09:24:34;;;;;;;2.03;0.82;;;;;;;;;;5050754;28;20040;-68
2022/04/03 09:27:01;;;;;;;4.28;0.90;;;;;;;;;;5051207;28;20040;-68
2022/04/03 09:29:27;;;;;;;1.98;0.80;;;;;;;;;;5050157;28;20040;-68
2022/04/03 09:32:00;;;;;;;2.47;1.00;;;;;;;;;;5050455;28;20044;-68
2022/04/03 09:34:27;;;;;;;3.15;0.82;;;;;;;;;;5069050;28;20075;-68
2022/04/03 09:36:57;;;;;;;4.22;0.90;;;;;;;;;;5049821;28;20429;-67
2022/04/03 09:39:27;;;;;;;5.30;1.00;;;;;;;;;;5049267;28;20901;-68
2022/04/03 09:42:06;;;;;;;2.72;0.90;;;;;;;;;;5049698;28;20054;-68
2022/04/03 09:44:32;;;;;;;2.00;0.80;;;;;;;;;;5049238;28;20047;-68
2022/04/03 09:47:14;;;;;;;2.67;0.75;;;;;;;;;;5050114;28;20493;-68
2022/04/03 09:49:44;;;;;;;3.08;0.90;;;;;;;;;;5050840;28;20037;-68
2022/04/03 09:52:11;;;;;;;1.73;0.70;;;;;;;;;;5049729;28;20059;-68
2022/04/03 09:54:38;;;;;;;1.63;0.70;;;;;;;;;;5048906;28;20110;-68
2022/04/03 09:57:20;;;;;;;2.80;0.82;;;;;;;;;;5067539;28;20068;-68
2022/04/03 09:59:51;;;;;;;1.45;0.60;;;;;;;;;;5048823;28;20430;-68
2022/04/03 10:02:17;;;;;;;2.00;0.73;;;;;;;;;;5065959;28;20044;-68
2022/04/03 10:04:45;;;;;;;1.98;0.75;;;;;;;;;;5049970;28;20037;-69
2022/04/03 10:07:13;;;;;;;1.90;1.10;;;;;;;;;;5048906;28;20509;-67
2022/04/03 10:09:44;;;;;;;3.08;0.80;;;;;;;;;;5047944;28;20049;-67
2022/04/03 10:12:11;;;;;;;1.13;0.47;;;;;;;;;;5036006;28;20170;-67
2022/04/03 10:14:39;;;;;;;3.10;0.70;;;;;;;;;;5054143;28;20071;-67
2022/04/03 10:17:05;;;;;;;2.80;1.08;;;;;;;;;;5072483;28;20155;-67
2022/04/03 10:19:31;;;;;;;3.83;1.02;;;;;;;;;;5051988;28;20033;-67
2022/04/03 10:21:58;;;;;;;1.63;0.70;;;;;;;;;;5067859;28;20045;-67
2022/04/03 10:24:24;;;;;;;4.07;0.75;;;;;;;;;;5049839;28;20132;-67
2022/04/03 10:26:53;;;;;;;2.25;0.75;;;;;;;;;;5034203;28;20495;-67
2022/04/03 10:29:19;;;;;;;4.00;1.00;;;;;;;;;;5050592;28;20046;-67
2022/04/03 10:31:55;;;;;;;1.85;0.85;;;;;;;;;;5034816;28;20054;-67
2022/04/03 10:34:21;;;;;;;;;;;;;;;;;;5067367;28;20122;-68
2022/04/03 10:36:47;;;;;;;2.40;0.82;;;;;;;;;;5051407;28;19917;-67
2022/04/03 10:39:21;;;;;;;1.60;1.02;;;;;;;;;;5052677;28;20047;-67
2022/04/03 10:41:47;;;;;;;2.88;1.05;;;;;;;;;;5068035;28;20036;-67
2022/04/03 10:44:15;;;;;;;1.85;0.80;;;;;;;;;;5050762;28;20063;-67
2022/04/03 10:47:11;;;;;;;3.67;1.00;;;;;;;;;;5048991;28;20043;-67
2022/04/03 10:49:40;;;;;;;2.33;0.88;;;;;;;;;;5035753;28;20050;-67
2022/04/03 10:52:07;;;;;;;2.45;0.70;;;;;;;;;;5051012;28;20174;-67
2022/04/03 10:54:42;;;;;;;1.65;0.80;;;;;;;;;;5051311;28;20028;-67
2022/04/03 10:57:27;;;;;;;2.73;0.77;;;;;;;;;;5068831;28;20175;-67
2022/04/03 11:00:12;;;;;;;1.65;0.82;;;;;;;;;;5049373;28;20683;-67
2022/04/03 11:02:51;;;;;;;3.28;1.02;;;;;;;;;;5050298;28;20041;-67
2022/04/03 11:07:50;;;;;;;3.13;0.93;;;;;;;;;;5067589;28;20044;-68
2022/04/03 11:10:16;;;;;;;1.50;0.70;;;;;;;;;;5053866;28;20124;-67
2022/04/03 11:12:54;;;;;;;2.63;0.70;;;;;;;;;;5077293;28;20044;-67
2022/04/03 11:15:20;;;;;;;4.10;0.70;;;;;;;;;;5075094;28;20086;-67
2022/04/03 11:17:48;;;;;;;5.05;0.80;;;;;;;;;;5055030;28;20071;-67
2022/04/03 11:20:30;;;;;;;1.20;0.60;;;;;;;;;;5041293;28;20079;-67
2022/04/03 11:22:58;;;;;;;2.63;0.60;;;;;;;;;;5056496;28;20035;-67
2022/04/03 11:25:24;;;;;;;1.15;0.40;;;;;;;;;;5058825;28;20052;-67
2022/04/03 11:27:51;;;;;;;2.22;0.60;;;;;;;;;;5057374;28;20086;-69
2022/04/03 11:30:20;;;;;;;2.60;0.77;;;;;;;;;;5057137;28;20451;-67
2022/04/03 11:32:48;;;;;;;1.08;0.40;;;;;;;;;;5057506;28;20045;-67
2022/04/03 11:35:14;;;;;;;0.90;0.43;;;;;;;;;;5059016;28;20043;-68
2022/04/03 11:37:44;;;;;;;2.63;1.10;;;;;;;;;;5056401;28;20567;-67
2022/04/03 11:40:10;;;;;;;2.38;1.10;;;;;;;;;;5058372;28;20044;-67
2022/04/03 11:42:36;;;;;;;3.38;1.17;;;;;;;;;;5056990;28;20392;-67
2022/04/03 11:45:06;;;;;;;2.55;1.10;;;;;;;;;;5060320;28;20040;-67
2022/04/03 11:47:32;;;;;;;3.88;1.13;;;;;;;;;;5061506;28;20492;-69
2022/04/03 11:50:23;;;;;;;1.92;1.10;;;;;;;;;;5058067;28;20115;-68
2022/04/03 11:53:06;;;;;;;4.25;0.98;;;;;;;;;;5059661;28;20098;-68
2022/04/03 11:55:41;;;;;;;1.33;0.80;;;;;;;;;;5059284;28;20044;-67
2022/04/03 11:58:34;;;;;;;2.17;0.80;;;;;;;;;;5059010;28;20047;-67
2022/04/03 12:04:19;;;;;;;2.08;0.80;;;;;;;;;;5052491;28;20044;-68
2022/04/03 12:07:01;;;;;;;1.00;0.57;;;;;;;;;;5040217;28;20062;-67
2022/04/03 12:09:40;;;;;;;1.63;0.80;;;;;;;;;;5056309;28;20039;-68
2022/04/03 12:12:27;;;;;;;4.40;0.80;;;;;;;;;;5056280;28;20056;-68
2022/04/03 12:14:58;;;;;;;1.33;0.90;;;;;;;;;;5069510;28;20083;-70
2022/04/03 12:17:52;;;;;;;3.15;0.90;;;;;;;;;;5055439;28;20446;-68
2022/04/03 12:20:44;;;;;;;5.35;1.00;;;;;;;;;;5054799;28;20397;-68
2022/04/03 12:23:32;;;;;;;4.20;1.13;;;;;;;;;;5041885;28;20138;-69
2022/04/03 12:26:07;;;;;;;3.95;1.10;;;;;;;;;;5049374;28;20114;-69
2022/04/03 12:28:38;;;;;;;1.50;0.82;;;;;;;;;;5053405;28;20420;-68
2022/04/03 12:34:23;;;;;;;1.02;0.80;;;;;;;;;;5050919;28;20049;-68
2022/04/03 12:36:56;;;;;;;1.95;1.00;;;;;;;;;;5028964;28;20444;-68
2022/04/03 12:39:31;;;;;;;3.85;1.02;;;;;;;;;;5051120;28;20082;-68
2022/04/03 12:42:12;;;;;;;2.10;0.80;;;;;;;;;;5051177;28;20083;-68
2022/04/03 12:44:44;;;;;;;3.95;1.40;;;;;;;;;;5051282;28;20051;-68
2022/04/03 12:47:28;;;;;;;2.03;1.08;;;;;;;;;;5049931;28;20576;-68
2022/04/03 12:50:10;;;;;;;2.47;0.70;;;;;;;;;;5053480;28;20493;-68
2022/04/03 12:52:43;;;;;;;1.95;0.80;;;;;;;;;;5051477;28;20060;-68
2022/04/03 12:55:34;;;;;;;13.65;8.43;;;;;;;;;;5050900;28;20043;-68
2022/04/03 12:58:26;;;;;;;3.30;2.05;;;;;;;;;;5050241;28;20504;-68
2022/04/03 13:03:57;;;;;;;4.65;3.50;;;;;;;;;;5047733;28;20440;-68
2022/04/03 13:06:45;;;;;;;5.43;4.43;;;;;;;;;;5046710;28;20080;-68
2022/04/03 13:09:23;;;;;;;4.10;2.60;;;;;;;;;;5047185;28;20045;-67
2022/04/03 13:12:12;;;;;;;1.70;1.10;;;;;;;;;;5048470;28;20182;-68
2022/04/03 13:14:59;;;;;;;2.33;1.50;;;;;;;;;;5047916;28;20461;-68
2022/04/03 13:17:44;;;;;;;6.93;1.10;;;;;;;;;;5048759;28;20425;-68
2022/04/03 13:23:24;;;;;;;2.15;0.93;;;;;;;;;;5036099;28;20401;-68
2022/04/03 13:25:55;;;;;;;2.83;1.10;;;;;;;;;;5034078;28;20044;-68
2022/04/03 13:28:24;;;;;;;4.63;1.02;;;;;;;;;;5047731;28;20382;-68
2022/04/03 13:30:59;;;;;;;1.52;0.60;;;;;;;;;;5049510;28;20048;-68
2022/04/03 13:33:27;;;;;;;1.30;0.90;;;;;;;;;;5046743;28;20118;-68
2022/04/03 13:35:58;;;;;;;2.08;0.68;;;;;;;;;;5048021;28;20041;-68
2022/04/03 13:38:33;;;;;;;1.50;0.70;;;;;;;;;;5047013;28;20075;-68
2022/04/03 13:41:13;;;;;;;1.50;0.80;;;;;;;;;;5048402;28;20041;-68
2022/04/03 13:43:49;;;;;;;2.53;0.90;;;;;;;;;;5048694;28;20045;-68
2022/04/03 13:49:13;;;;;;;2.50;0.80;;;;;;;;;;5047402;28;20145;-67
2022/04/03 13:51:48;;;;;;;2.17;0.80;;;;;;;;;;5047696;28;20095;-67
2022/04/03 13:58:06;;;;;;;2.95;1.00;;;;;;;;;;5047030;28;20083;-67
2022/04/03 14:00:41;;;;;;;1.55;0.80;;;;;;;;;;5048479;28;20047;-67
2022/04/03 14:03:30;;;;;;;3.15;1.00;;;;;;;;;;5046678;28;20142;-67
2022/04/03 14:09:04;;;;;;;2.38;0.70;;;;;;;;;;5052384;28;20127;-67
2022/04/03 14:14:52;;;;;;;3.03;1.00;;;;;;;;;;5043520;28;20076;-69
2022/04/03 14:17:19;;;;;;;1.10;0.60;;;;;;;;;;5027262;28;20500;-69
2022/04/03 14:19:48;;;;;;;1.75;0.73;;;;;;;;;;5045771;28;20086;-63
2022/04/03 14:22:14;;;;;;;2.90;0.65;;;;;;;;;;5047072;28;20500;-65
2022/04/03 14:24:43;;;;;;;1.48;0.80;;;;;;;;;;5047248;28;20370;-65
2022/04/03 14:27:17;;;;;;;2.70;0.40;;;;;;;;;;5047234;28;20044;-67
2022/04/03 14:29:45;;;;;;;2.67;0.70;;;;;;;;;;5011027;28;20425;-66
2022/04/03 14:32:11;;;;;;;1.92;0.80;;;;;;;;;;5046684;28;20520;-66
2022/04/03 14:34:37;;;;;;;2.40;0.70;;;;;;;;;;5046795;28;20397;-64
2022/04/03 14:37:11;;;;;;;2.88;0.70;;;;;;;;;;5043377;28;20056;-68
2022/04/03 14:39:55;;;;;;;1.23;0.60;;;;;;;;;;5045212;28;20064;-68
2022/04/03 14:42:51;;;;;;;5.88;1.00;;;;;;;;;;5045899;28;20032;-68
2022/04/03 14:45:38;;;;;;;3.33;0.70;;;;;;;;;;5042818;28;20394;-67
2022/04/03 14:51:13;;;;;;;2.33;0.70;;;;;;;;;;5016355;28;20060;-67
2022/04/03 14:54:05;;;;;;;0.73;0.50;;;;;;;;;;5045397;28;20044;-67
2022/04/03 14:56:40;;;;;;;1.40;0.70;;;;;;;;;;5045602;28;20040;-67
2022/04/03 14:59:11;;;;;;;4.35;0.60;;;;;;;;;;5062074;28;20360;-67
2022/04/03 15:01:57;;;;;;;1.73;0.60;;;;;;;;;;5062228;28;20385;-67
2022/04/03 15:04:41;;;;;;;1.10;0.57;;;;;;;;;;5028617;28;20033;-67
2022/04/03 15:07:19;;;;;;;2.70;0.82;;;;;;;;;;5043142;28;20056;-67
2022/04/03 15:09:49;;;;;;;1.25;0.57;;;;;;;;;;5045904;28;20036;-67
2022/04/03 15:12:18;;;;;;;2.70;0.60;;;;;;;;;;5045685;28;20707;-67
2022/04/03 15:15:00;;;;;;;1.65;0.60;;;;;;;;;;5054717;28;20106;-67
2022/04/03 15:17:26;;;;;;;1.92;0.60;;;;;;;;;;5049198;28;20045;-68
2022/04/03 15:19:58;;;;;;;2.13;0.70;;;;;;;;;;5048098;28;20061;-68
2022/04/03 15:22:48;;;;;;;1.52;0.70;;;;;;;;;;5047712;28;20049;-68
2022/04/03 15:25:19;;;;;;;4.00;0.70;;;;;;;;;;5046727;28;20080;-68
2022/04/03 15:28:02;;;;;;;1.58;0.70;;;;;;;;;;5063841;28;20052;-68